TimeCST,TemperatureF,Dew PointF,Humidity,Sea Level PressureIn,VisibilityMPH,Wind Direction,Wind SpeedMPH,Gust SpeedMPH,PrecipitationIn,Events,Conditions,WindDirDegrees,DateUTC
12:54 AM,10.0,-0.9,61,30.62,10.0,SE,5.8,-,N/A,,Clear,140,2013-12-12 06:54:00
1:54 AM,8.1,-0.0,70,30.60,10.0,South,6.9,-,N/A,,Clear,170,2013-12-12 07:54:00
2:54 AM,8.1,-0.9,67,30.61,10.0,South,6.9,-,N/A,,Clear,190,2013-12-12 08:54:00
3:54 AM,9.0,1.0,70,30.58,10.0,South,6.9,-,N/A,,Clear,180,2013-12-12 09:54:00
4:54 AM,10.0,1.9,70,30.57,10.0,South,3.5,-,N/A,,Clear,180,2013-12-12 10:54:00
5:54 AM,10.9,1.9,67,30.57,10.0,South,4.6,-,N/A,,Clear,180,2013-12-12 11:54:00
6:54 AM,9.0,1.9,73,30.56,10.0,SSE,8.1,-,N/A,,Clear,160,2013-12-12 12:54:00
7:54 AM,12.0,3.9,70,30.56,10.0,South,8.1,-,N/A,,Clear,170,2013-12-12 13:54:00
8:54 AM,16.0,8.1,71,30.56,10.0,South,9.2,-,N/A,,Clear,190,2013-12-12 14:54:00
9:54 AM,24.1,10.0,55,30.55,10.0,SSW,8.1,-,N/A,,Clear,200,2013-12-12 15:54:00
10:54 AM,28.9,10.0,45,30.54,10.0,SSW,13.8,-,N/A,,Clear,210,2013-12-12 16:54:00
11:54 AM,35.1,10.0,35,30.48,10.0,SW,12.7,-,N/A,,Clear,220,2013-12-12 17:54:00
12:54 PM,39.9,8.1,27,30.43,10.0,SW,18.4,-,N/A,,Clear,230,2013-12-12 18:54:00
1:54 PM,43.0,9.0,25,30.40,10.0,SW,15.0,-,N/A,,Clear,230,2013-12-12 19:54:00
2:54 PM,44.1,10.0,25,30.37,10.0,SW,15.0,-,N/A,,Clear,230,2013-12-12 20:54:00
3:54 PM,43.0,10.0,26,30.36,10.0,WSW,12.7,-,N/A,,Clear,240,2013-12-12 21:54:00
4:54 PM,36.0,10.0,34,30.35,10.0,SW,8.1,-,N/A,,Clear,220,2013-12-12 22:54:00
5:54 PM,32.0,10.0,40,30.33,10.0,SSW,8.1,-,N/A,,Clear,200,2013-12-12 23:54:00
6:54 PM,30.9,12.9,47,30.34,10.0,SSW,10.4,-,N/A,,Clear,210,2013-12-13 00:54:00
7:54 PM,30.9,15.1,52,30.32,10.0,SSW,9.2,-,N/A,,Clear,200,2013-12-13 01:54:00
8:54 PM,32.0,19.0,59,30.30,10.0,SW,10.4,-,N/A,,Clear,220,2013-12-13 02:54:00
9:54 PM,30.0,19.0,64,30.29,10.0,SSW,11.5,-,N/A,,Clear,210,2013-12-13 03:54:00
10:54 PM,30.9,19.0,61,30.27,10.0,SSW,10.4,-,N/A,,Clear,210,2013-12-13 04:54:00
11:54 PM,28.9,18.0,64,30.25,10.0,SSW,10.4,-,N/A,,Clear,200,2013-12-13 05:54:00